createdAt,value
2018-09-11T00:00:27.007Z,5.22
2018-09-11T00:05:22.395Z,5.17
2018-09-11T00:07:50.042Z,3.90
2018-09-11T00:10:17.707Z,4.33
2018-09-11T00:12:45.447Z,4.67
2018-09-11T00:15:13.031Z,6.62
2018-09-11T00:17:40.731Z,4.27
2018-09-11T00:22:35.907Z,3.90
2018-09-11T00:25:03.727Z,5.10
2018-09-11T00:27:31.491Z,4.63
2018-09-11T00:29:59.142Z,5.17
2018-09-11T00:32:26.738Z,4.40
2018-09-11T00:34:54.467Z,4.92
2018-09-11T00:39:49.435Z,5.50
2018-09-11T00:42:17.197Z,4.40
2018-09-11T00:44:44.943Z,5.23
2018-09-11T00:49:45.172Z,4.10
2018-09-11T00:52:12.727Z,6.63
2018-09-11T00:54:40.469Z,4.70
2018-09-11T00:57:08.019Z,4.80
2018-09-11T01:02:02.895Z,4.57
2018-09-11T01:04:30.584Z,4.60
2018-09-11T01:06:58.571Z,4.70
2018-09-11T01:11:53.526Z,5.03
2018-09-11T01:14:21.023Z,4.57
2018-09-11T01:16:48.951Z,4.70
2018-09-11T01:19:16.582Z,4.40
2018-09-11T01:21:44.059Z,4.77
2018-09-11T01:24:11.743Z,4.53
2018-09-11T01:26:39.447Z,4.70
2018-09-11T01:29:07.027Z,4.70
2018-09-11T01:31:34.791Z,4.40
2018-09-11T01:34:02.506Z,4.40
2018-09-11T01:36:30.193Z,5.12
2018-09-11T01:38:57.875Z,4.50
2018-09-11T01:41:25.728Z,4.63
2018-09-11T01:43:53.598Z,5.30
2018-09-11T01:46:21.265Z,4.40
2018-09-11T01:48:48.894Z,6.70
2018-09-11T01:56:10.835Z,5.17
2018-09-11T01:58:38.698Z,6.00
2018-09-11T02:01:06.339Z,4.23
2018-09-11T02:03:34.423Z,5.12
2018-09-11T02:06:02.006Z,6.87
2018-09-11T02:10:56.894Z,6.83
2018-09-11T02:13:24.639Z,5.62
2018-09-11T02:18:19.586Z,4.93
2018-09-11T02:20:47.072Z,4.10
2018-09-11T02:23:14.751Z,4.05
2018-09-11T02:25:42.567Z,4.85
2018-09-11T02:28:10.286Z,4.90
2018-09-11T02:30:37.888Z,7.20
2018-09-11T02:33:05.588Z,4.03
2018-09-11T02:35:33.340Z,4.87
2018-09-11T02:38:00.946Z,5.17
2018-09-11T02:40:28.734Z,5.92
2018-09-11T02:42:56.439Z,5.17
2018-09-11T02:45:24.015Z,5.77
2018-09-11T02:47:53.628Z,4.70
2018-09-11T02:50:21.294Z,5.13
2018-09-11T02:55:16.390Z,4.73
2018-09-11T02:57:43.971Z,4.57
2018-09-11T03:00:11.679Z,4.90
2018-09-11T03:02:39.411Z,4.93
2018-09-11T03:05:07.071Z,4.07
2018-09-11T03:07:34.735Z,5.13
2018-09-11T03:10:02.579Z,4.35
2018-09-11T03:12:30.403Z,4.57
2018-09-11T03:14:58.298Z,4.10
2018-09-11T03:17:25.903Z,4.90
2018-09-11T03:19:53.682Z,4.70
2018-09-11T03:22:21.410Z,6.10
2018-09-11T03:24:49.026Z,4.83
2018-09-11T03:30:00.033Z,5.20
2018-09-11T03:32:27.644Z,4.87
2018-09-11T03:34:55.579Z,5.20
2018-09-11T03:37:23.066Z,5.17
2018-09-11T03:39:50.827Z,5.65
2018-09-11T03:42:18.706Z,4.53
2018-09-11T03:44:46.460Z,4.93
2018-09-11T03:47:14.030Z,4.23
2018-09-11T03:52:08.990Z,5.20
2018-09-11T03:54:36.780Z,4.15
2018-09-11T03:57:04.566Z,4.57
2018-09-11T03:59:32.199Z,6.22
2018-09-11T04:01:59.723Z,7.92
2018-09-11T04:04:27.563Z,5.00
2018-09-11T04:06:55.070Z,5.87
2018-09-11T04:09:22.875Z,4.87
2018-09-11T04:16:44.866Z,5.30
2018-09-11T04:19:12.569Z,5.27
2018-09-11T04:21:40.172Z,4.47
2018-09-11T04:24:07.771Z,4.50
2018-09-11T04:26:35.625Z,4.73
2018-09-11T04:29:03.299Z,5.03
2018-09-11T04:31:30.997Z,4.87
2018-09-11T04:33:58.742Z,4.40
2018-09-11T04:36:26.472Z,4.53
2018-09-11T04:38:54.015Z,4.97
2018-09-11T04:43:49.386Z,4.93
2018-09-11T04:46:17.051Z,7.73
2018-09-11T04:48:45.478Z,6.57
2018-09-11T04:51:13.323Z,6.50
2018-09-11T04:53:41.058Z,6.80
2018-09-11T04:56:08.747Z,6.77
2018-09-11T04:58:36.903Z,8.47
2018-09-11T05:01:05.580Z,5.57
2018-09-11T05:03:33.338Z,7.00
2018-09-11T05:08:28.134Z,4.93
2018-09-11T05:11:01.619Z,5.83
2018-09-11T05:13:47.618Z,4.67
2018-09-11T05:16:15.559Z,5.33
2018-09-11T05:18:43.179Z,4.83
2018-09-11T05:21:10.846Z,5.53
2018-09-11T05:23:38.566Z,6.87
2018-09-11T05:26:06.315Z,4.78
2018-09-11T05:28:33.915Z,7.80
2018-09-11T05:31:01.595Z,7.20
2018-09-11T05:33:29.293Z,10.13
2018-09-11T05:38:24.032Z,10.33
2018-09-11T05:40:51.756Z,7.23
2018-09-11T05:43:19.718Z,5.80
2018-09-11T05:48:14.576Z,8.80
2018-09-11T05:50:42.482Z,5.83
2018-09-11T05:53:10.030Z,7.00
2018-09-11T05:55:37.745Z,5.50
2018-09-11T05:58:05.475Z,8.97
2018-09-11T06:00:33.167Z,6.33
2018-09-11T06:03:00.896Z,6.78
2018-09-11T06:05:28.609Z,7.30
2018-09-11T06:07:56.394Z,10.00
2018-09-11T06:10:23.954Z,6.53
2018-09-11T06:12:51.582Z,11.63
2018-09-11T06:15:19.070Z,8.33
2018-09-11T06:18:51.746Z,11.70
2018-09-11T06:21:19.525Z,7.43
2018-09-11T06:23:47.300Z,9.10
2018-09-11T06:26:15.023Z,11.27
2018-09-11T06:31:09.994Z,14.03
2018-09-11T06:33:37.687Z,11.12
2018-09-11T06:36:05.807Z,22.40
2018-09-11T06:38:33.570Z,21.07
2018-09-11T06:41:01.399Z,16.90
2018-09-11T06:43:29.571Z,15.97
2018-09-11T06:45:57.286Z,13.27
2018-09-11T06:48:24.967Z,14.60
2018-09-11T06:50:52.874Z,20.23
2018-09-11T06:53:20.731Z,15.23
2018-09-11T06:55:48.570Z,18.87
2018-09-11T06:58:16.154Z,18.10
2018-09-11T07:03:11.291Z,17.25
2018-09-11T07:05:38.911Z,11.53
2018-09-11T07:08:06.754Z,15.83
2018-09-11T07:10:34.526Z,11.10
2018-09-11T07:13:02.177Z,8.63
2018-09-11T07:15:30.359Z,10.00
2018-09-11T07:17:58.346Z,9.37
2018-09-11T07:20:26.026Z,8.03
2018-09-11T07:22:53.733Z,13.72
2018-09-11T07:27:49.221Z,10.80
2018-09-11T07:30:16.875Z,7.55
2018-09-11T07:32:44.574Z,13.57
2018-09-11T07:35:12.450Z,10.28
2018-09-11T07:37:40.213Z,9.43
2018-09-11T07:40:08.051Z,8.83
2018-09-11T07:45:03.202Z,7.63
2018-09-11T07:47:31.036Z,11.43
2018-09-11T07:49:58.718Z,8.37
2018-09-11T07:54:53.983Z,8.73
2018-09-11T07:57:21.731Z,9.05
2018-09-11T07:59:49.532Z,7.60
2018-09-11T08:02:17.387Z,6.87
2018-09-11T08:04:44.987Z,10.97
2018-09-11T08:07:12.759Z,6.97
2018-09-11T08:09:40.742Z,8.20
2018-09-11T08:12:08.534Z,9.67
2018-09-11T08:14:36.383Z,7.73
2018-09-11T08:17:04.374Z,7.50
2018-09-11T08:20:55.799Z,6.90
2018-09-11T08:23:23.554Z,8.63
2018-09-11T08:25:51.170Z,7.70
2018-09-11T08:28:19.027Z,6.27
2018-09-11T08:33:13.726Z,10.57
2018-09-11T08:35:41.438Z,7.20
2018-09-11T08:38:09.026Z,6.07
2018-09-11T08:40:36.624Z,5.92
2018-09-11T08:43:05.047Z,5.70
2018-09-11T08:45:32.735Z,7.37
2018-09-11T08:48:00.459Z,7.37
2018-09-11T08:50:28.071Z,6.70
2018-09-11T08:52:55.915Z,6.23
2018-09-11T08:57:50.891Z,6.33
2018-09-11T09:00:18.575Z,5.17
2018-09-11T09:05:13.491Z,5.13
2018-09-11T09:07:41.295Z,4.27
2018-09-11T09:10:08.966Z,5.62
2018-09-11T09:12:36.578Z,3.80
2018-09-11T09:15:04.203Z,4.63
2018-09-11T09:17:31.911Z,6.20
2018-09-11T09:19:59.581Z,6.23
2018-09-11T09:24:54.506Z,5.03
2018-09-11T09:27:22.204Z,4.13
2018-09-11T09:29:49.992Z,8.65
2018-09-11T09:32:17.966Z,3.93
2018-09-11T09:34:45.595Z,4.42
2018-09-11T09:37:13.306Z,5.30
2018-09-11T09:42:08.062Z,5.17
2018-09-11T09:47:03.002Z,3.67
2018-09-11T09:49:30.744Z,5.62
2018-09-11T09:51:58.567Z,4.73
2018-09-11T09:54:26.498Z,5.77
2018-09-11T09:56:54.052Z,4.80
2018-09-11T10:01:54.978Z,5.40
2018-09-11T10:04:22.743Z,4.10
2018-09-11T10:06:50.499Z,3.37
2018-09-11T10:09:18.582Z,3.90
2018-09-11T10:11:46.322Z,4.17
2018-09-11T10:14:13.882Z,6.20
2018-09-11T10:16:41.579Z,3.90
2018-09-11T10:19:09.303Z,3.83
2018-09-11T10:21:36.906Z,3.50
2018-09-11T10:24:04.976Z,3.83
2018-09-11T10:26:32.737Z,5.87
2018-09-11T10:29:00.491Z,4.93
2018-09-11T10:31:28.208Z,3.55
2018-09-11T10:33:55.818Z,3.27
2018-09-11T10:36:23.507Z,3.67
2018-09-11T10:41:18.308Z,4.20
2018-09-11T10:43:45.884Z,3.63
2018-09-11T10:46:13.798Z,3.45
2018-09-11T10:48:41.547Z,3.80
2018-09-11T10:51:09.078Z,3.30
2018-09-11T10:53:36.828Z,4.00
2018-09-11T10:56:04.587Z,4.03
2018-09-11T10:58:32.347Z,4.23
2018-09-11T11:00:59.947Z,3.87
2018-09-11T11:03:27.575Z,3.80
2018-09-11T11:05:55.366Z,3.37
2018-09-11T11:08:22.994Z,3.50
2018-09-11T11:10:50.951Z,3.80
2018-09-11T11:15:46.170Z,3.67
2018-09-11T11:18:13.966Z,4.37
2018-09-11T11:20:41.657Z,5.03
2018-09-11T11:25:36.753Z,3.47
2018-09-11T11:28:04.551Z,3.80
2018-09-11T11:30:32.193Z,4.67
2018-09-11T11:32:59.738Z,4.00
2018-09-11T11:35:27.587Z,3.80
2018-09-11T11:37:55.418Z,4.00
2018-09-11T11:40:23.177Z,3.53
2018-09-11T11:42:51.019Z,3.73
2018-09-11T11:45:19.572Z,4.00
2018-09-11T11:47:47.350Z,5.83
2018-09-11T11:50:15.071Z,3.37
2018-09-11T11:52:42.862Z,3.90
2018-09-11T11:55:10.700Z,3.45
2018-09-11T12:00:05.435Z,4.20
2018-09-11T12:02:33.467Z,4.57
2018-09-11T12:05:01.101Z,3.53
2018-09-11T12:07:28.862Z,3.57
2018-09-11T12:09:56.842Z,4.58
2018-09-11T12:12:24.589Z,3.73
2018-09-11T12:14:52.307Z,4.47
2018-09-11T12:17:19.999Z,5.07
2018-09-11T12:19:47.654Z,3.53
2018-09-11T12:22:15.408Z,3.40
2018-09-11T12:24:43.013Z,3.62
2018-09-11T12:27:10.771Z,3.53
2018-09-11T12:34:33.043Z,3.80
2018-09-11T12:37:00.740Z,4.65
2018-09-11T12:39:28.619Z,5.80
2018-09-11T12:41:56.306Z,3.85
2018-09-11T12:44:23.899Z,3.97
2018-09-11T12:46:51.738Z,4.87
2018-09-11T12:49:19.519Z,4.90
2018-09-11T12:51:47.231Z,3.53
2018-09-11T12:54:14.919Z,4.60
2018-09-11T12:59:10.071Z,3.47
2018-09-11T13:01:37.890Z,3.37
2018-09-11T13:04:05.800Z,3.53
2018-09-11T13:06:33.928Z,3.62
2018-09-11T13:09:01.626Z,4.00
2018-09-11T13:11:29.306Z,3.98
2018-09-11T13:13:56.912Z,4.00
2018-09-11T13:16:24.590Z,7.30
2018-09-11T13:18:52.579Z,3.27
2018-09-11T13:21:20.495Z,3.63
2018-09-11T13:23:48.035Z,4.60
2018-09-11T13:26:15.676Z,4.40
2018-09-11T13:28:43.786Z,4.20
2018-09-11T13:33:38.809Z,3.50
2018-09-11T13:36:06.579Z,4.57
2018-09-11T13:38:34.183Z,3.85
2018-09-11T13:41:01.887Z,3.50
2018-09-11T13:43:29.592Z,4.87
2018-09-11T13:45:57.266Z,3.87
2018-09-11T13:48:24.959Z,4.53
2018-09-11T13:50:52.714Z,3.40
2018-09-11T13:55:47.595Z,4.43
2018-09-11T13:58:15.191Z,3.70
2018-09-11T14:00:42.919Z,2.98
2018-09-11T14:05:37.743Z,4.17
2018-09-11T14:08:06.407Z,3.30
2018-09-11T14:10:34.197Z,4.33
2018-09-11T14:13:01.876Z,5.83
2018-09-11T14:15:29.583Z,4.10
2018-09-11T14:17:57.520Z,3.37
2018-09-11T14:20:25.045Z,4.43
2018-09-11T14:22:52.755Z,6.80
2018-09-11T14:25:20.576Z,3.15
2018-09-11T14:27:48.382Z,4.17
2018-09-11T14:32:43.541Z,4.10
2018-09-11T14:35:11.426Z,3.83
2018-09-11T14:40:06.313Z,6.75
2018-09-11T14:42:33.987Z,4.17
2018-09-11T14:45:01.751Z,4.42
2018-09-11T14:47:35.575Z,4.23
2018-09-11T14:50:05.386Z,6.30
2018-09-11T14:52:33.247Z,8.93
2018-09-11T14:55:00.822Z,9.03
2018-09-11T14:57:28.799Z,5.37
2018-09-11T15:02:23.603Z,5.10
2018-09-11T15:04:51.431Z,5.28
2018-09-11T15:07:19.010Z,5.77
2018-09-11T15:09:46.846Z,5.17
2018-09-11T15:12:14.591Z,5.20
2018-09-11T15:14:42.390Z,8.18
2018-09-11T15:17:10.044Z,5.97
2018-09-11T15:19:37.750Z,5.60
2018-09-11T15:22:05.641Z,5.67
2018-09-11T15:24:33.407Z,4.87
2018-09-11T15:27:01.007Z,6.07
2018-09-11T15:29:28.730Z,7.67
2018-09-11T15:31:56.463Z,8.30
2018-09-11T15:34:24.031Z,7.97
2018-09-11T15:36:51.734Z,5.73
2018-09-11T15:39:19.479Z,7.80
2018-09-11T15:41:47.063Z,5.97
2018-09-11T15:44:15.063Z,7.47
2018-09-11T15:46:42.726Z,4.87
2018-09-11T15:49:10.789Z,5.83
2018-09-11T15:51:38.539Z,5.57
2018-09-11T15:54:06.583Z,5.83
2018-09-11T15:56:34.371Z,5.20
2018-09-11T15:59:02.047Z,5.20
2018-09-11T16:01:29.860Z,6.17
2018-09-11T16:03:57.823Z,6.20
2018-09-11T16:08:52.667Z,3.90
2018-09-11T16:11:20.311Z,6.13
2018-09-11T16:13:48.171Z,5.17
2018-09-11T16:16:15.755Z,4.47
2018-09-11T16:18:43.614Z,5.37
2018-09-11T16:21:11.543Z,6.93
2018-09-11T16:23:39.307Z,4.77
2018-09-11T16:26:07.030Z,5.63
2018-09-11T16:31:01.860Z,4.40
2018-09-11T16:33:29.866Z,5.58
2018-09-11T16:35:57.600Z,4.33
2018-09-11T16:38:25.339Z,4.53
2018-09-11T16:40:53.056Z,5.80
2018-09-11T16:43:20.732Z,4.47
2018-09-11T16:45:48.571Z,6.37
2018-09-11T16:48:16.607Z,6.55
2018-09-11T16:50:44.417Z,4.50
2018-09-11T16:53:12.075Z,4.43
2018-09-11T16:55:39.741Z,4.33
2018-09-11T17:03:01.947Z,5.87
2018-09-11T17:05:29.682Z,5.90
2018-09-11T17:07:57.518Z,5.13
2018-09-11T17:10:25.407Z,4.12
2018-09-11T17:12:53.436Z,5.27
2018-09-11T17:15:21.816Z,4.63
2018-09-11T17:17:49.748Z,5.40
2018-09-11T17:20:17.633Z,6.13
2018-09-11T17:22:45.200Z,5.30
2018-09-11T17:27:40.559Z,6.30
2018-09-11T17:30:08.071Z,6.77
2018-09-11T17:35:03.030Z,8.50
2018-09-11T17:37:32.050Z,6.07
2018-09-11T17:39:59.791Z,5.53
2018-09-11T17:42:27.538Z,6.57
2018-09-11T17:44:55.308Z,10.10
2018-09-11T17:47:28.781Z,6.97
2018-09-11T17:49:57.051Z,10.53
2018-09-11T17:52:24.779Z,10.17
2018-09-11T17:54:52.507Z,9.33
2018-09-11T17:57:20.991Z,11.00
2018-09-11T17:59:48.640Z,10.03
2018-09-11T18:02:16.552Z,9.47
2018-09-11T18:04:44.479Z,11.87
2018-09-11T18:07:12.299Z,9.47
2018-09-11T18:09:40.007Z,8.53
2018-09-11T18:14:35.790Z,8.10
2018-09-11T18:17:03.847Z,7.67
2018-09-11T18:19:31.607Z,10.60
2018-09-11T18:21:59.483Z,7.63
2018-09-11T18:24:27.180Z,8.60
2018-09-11T18:26:54.870Z,6.15
2018-09-11T18:29:23.872Z,5.97
2018-09-11T18:31:51.862Z,6.40
2018-09-11T18:34:19.582Z,7.73
2018-09-11T18:36:47.340Z,11.67
2018-09-11T18:39:14.891Z,13.50
2018-09-11T18:41:43.707Z,10.43
2018-09-11T18:44:11.475Z,7.17
2018-09-11T18:46:39.787Z,9.88
2018-09-11T18:49:08.320Z,12.40
2018-09-11T18:51:35.976Z,6.03
2018-09-11T18:54:03.669Z,7.47
2018-09-11T18:56:31.342Z,6.70
2018-09-11T18:58:59.051Z,11.15
2018-09-11T19:01:27.003Z,7.87
2018-09-11T19:05:50.840Z,7.40
2018-09-11T19:08:18.595Z,8.43
2018-09-11T19:10:46.068Z,7.40
2018-09-11T19:13:13.900Z,11.77
2018-09-11T19:15:41.595Z,9.30
2018-09-11T19:18:09.298Z,7.33
2018-09-11T19:20:37.012Z,8.30
2018-09-11T19:23:04.738Z,8.17
2018-09-11T19:25:32.495Z,7.53
2018-09-11T19:28:00.290Z,8.28
2018-09-11T19:30:27.926Z,10.53
2018-09-11T19:32:55.659Z,7.70
2018-09-11T19:35:23.296Z,6.50
2018-09-11T19:37:51.543Z,9.08
2018-09-11T19:40:20.835Z,9.67
2018-09-11T19:45:15.827Z,8.40
2018-09-11T19:47:43.578Z,10.17
2018-09-11T19:50:11.409Z,10.80
2018-09-11T19:55:07.049Z,6.83
2018-09-11T19:57:34.755Z,7.53
2018-09-11T20:00:02.540Z,9.90
2018-09-11T20:04:57.813Z,9.33
2018-09-11T20:07:25.527Z,8.87
2018-09-11T20:09:53.459Z,9.87
2018-09-11T20:12:21.007Z,12.83
2018-09-11T20:20:12.062Z,9.20
2018-09-11T20:22:39.731Z,7.78
2018-09-11T20:25:07.475Z,13.00
2018-09-11T20:27:35.039Z,8.58
2018-09-11T20:30:02.994Z,8.77
2018-09-11T20:32:30.788Z,11.03
2018-09-11T20:34:58.555Z,8.47
2018-09-11T20:37:26.176Z,10.78
2018-09-11T20:39:53.910Z,8.70
2018-09-11T20:42:21.719Z,7.90
2018-09-11T20:44:49.532Z,9.77
2018-09-11T20:47:17.055Z,9.10
2018-09-11T20:49:44.867Z,9.53
2018-09-11T20:52:12.567Z,8.27
2018-09-11T20:54:40.310Z,9.73
2018-09-11T20:59:35.570Z,8.47
2018-09-11T21:02:03.164Z,7.23
2018-09-11T21:04:30.735Z,7.53
2018-09-11T21:06:58.567Z,7.55
2018-09-11T21:11:53.569Z,9.50
2018-09-11T21:14:21.290Z,9.93
2018-09-11T21:19:16.499Z,7.42
2018-09-11T21:21:44.210Z,9.73
2018-09-11T21:24:11.927Z,8.10
2018-09-11T21:26:39.567Z,10.13
2018-09-11T21:29:07.294Z,9.13
2018-09-11T21:31:35.033Z,10.03
2018-09-11T21:34:02.743Z,11.30
2018-09-11T21:36:30.487Z,7.53
2018-09-11T21:38:58.575Z,9.30
2018-09-11T21:41:26.064Z,9.60
2018-09-11T21:43:53.739Z,10.30
2018-09-11T21:46:21.490Z,9.40
2018-09-11T21:48:49.052Z,7.53
2018-09-11T21:51:16.902Z,13.40
2018-09-11T21:53:44.579Z,8.03
2018-09-11T21:56:12.438Z,12.20
2018-09-11T21:58:40.015Z,13.17
2018-09-11T22:01:13.645Z,12.53
2018-09-11T22:03:41.407Z,12.70
2018-09-11T22:06:09.035Z,7.75
2018-09-11T22:08:36.727Z,12.47
2018-09-11T22:13:31.739Z,7.55
2018-09-11T22:15:59.579Z,10.82
2018-09-11T22:18:27.062Z,9.53
2018-09-11T22:20:54.858Z,10.70
2018-09-11T22:23:22.576Z,8.07
2018-09-11T22:25:50.415Z,9.38
2018-09-11T22:28:18.015Z,11.93
2018-09-11T22:30:45.643Z,10.03
2018-09-11T22:33:13.304Z,10.30
2018-09-11T22:35:41.405Z,8.28
2018-09-11T22:38:09.002Z,13.17
2018-09-11T22:43:04.617Z,9.63
2018-09-11T22:45:32.291Z,9.17
2018-09-11T22:47:59.999Z,8.57
2018-09-11T22:50:28.461Z,10.23
2018-09-11T22:52:56.307Z,8.53
2018-09-11T22:55:23.916Z,7.87
2018-09-11T22:57:51.792Z,11.40
2018-09-11T23:00:19.531Z,8.17
2018-09-11T23:02:47.403Z,9.50
2018-09-11T23:05:15.041Z,7.63
2018-09-11T23:07:42.795Z,8.33
2018-09-11T23:10:10.539Z,8.37
2018-09-11T23:12:38.106Z,9.53
2018-09-11T23:15:06.398Z,7.95
2018-09-11T23:17:34.398Z,9.97
2018-09-11T23:20:02.530Z,8.83
2018-09-11T23:22:30.160Z,9.23
2018-09-11T23:24:57.723Z,7.83
2018-09-11T23:27:25.655Z,8.00
2018-09-11T23:32:20.455Z,8.37
2018-09-11T23:34:48.025Z,7.63
2018-09-11T23:37:15.882Z,7.75
2018-09-11T23:39:43.679Z,8.13
2018-09-11T23:42:11.422Z,10.07
2018-09-11T23:44:39.010Z,8.97
2018-09-11T23:47:06.735Z,8.45
2018-09-11T23:49:34.680Z,7.40
2018-09-11T23:52:02.456Z,10.63
2018-09-11T23:54:30.033Z,6.70
2018-09-11T23:56:57.734Z,9.08
2018-09-11T23:59:25.531Z,7.50
